Flick Point, California
Current Conditions -  °F | °C
As of 11:45 AM on Sunday 23 Nov 2014 (Local Time) from KTRK Reporting Station
Overcast Overcast  
Wind Chill: 30°   Ceiling: 18000
Heat Index: 30°   Visibility: 10mi
Dew Point: 27°   Wind: 0mph
Humidity: 86%   Direction: NA
Pressure: 30.35"   Gusts: NA
Location:  39.2392°N, 120.102°W
Report Text: KTRK 231945Z 00000KT 10SM OVC180 M01/M03 A3035 RMK NOSEPCI
Loading
Personal Weather Stations






























Interactive Weather Map New forecast layout! Learn more

10-Day Weather Forecast

Advertisements
Track Severe Weather on mobile